Time,TemperatureF,DewpointF,PressureIn,WindDirection,WindDirectionDegrees,WindSpeedMPH,WindSpeedGustMPH,Humidity,HourlyPrecipIn,Conditions,Clouds,dailyrainin,SoftwareType,DateUTC
2013-05-20 00:02:00,49.9,49.9,30.30,WNW,288,0.0,0.0,100,0.00,,,0.00,Wunderground v.1.15,2013-05-20 07:02:00,
2013-05-20 00:07:00,49.9,49.9,30.30,WNW,291,0.0,0.0,100,0.00,,,0.00,Wunderground v.1.15,2013-05-20 07:07:00,
2013-05-20 00:17:00,49.8,49.8,30.30,WNW,302,0.0,0.0,100,0.00,,,0.00,Wunderground v.1.15,2013-05-20 07:17:00,
2013-05-20 00:27:00,49.8,49.8,30.30,WNW,282,0.0,0.0,100,0.00,,,0.00,Wunderground v.1.15,2013-05-20 07:27:00,
2013-05-20 00:37:00,49.5,49.5,30.30,WNW,288,0.0,0.0,100,0.00,,,0.00,Wunderground v.1.15,2013-05-20 07:37:00,
2013-05-20 00:42:00,49.5,49.5,30.30,West,280,0.0,0.0,100,0.00,,,0.00,Wunderground v.1.15,2013-05-20 07:42:00,
2013-05-20 00:47:00,49.6,49.6,30.30,West,277,0.0,0.0,100,0.00,,,0.00,Wunderground v.1.15,2013-05-20 07:47:00,
2013-05-20 00:57:00,49.6,49.6,30.30,WNW,295,0.0,0.0,100,0.00,,,0.00,Wunderground v.1.15,2013-05-20 07:57:00,
2013-05-20 01:02:00,49.8,49.8,30.30,WNW,285,0.0,0.0,100,0.00,,,0.00,Wunderground v.1.15,2013-05-20 08:02:00,
2013-05-20 01:07:00,49.8,49.8,30.30,WNW,298,0.0,0.0,100,0.00,,,0.00,Wunderground v.1.15,2013-05-20 08:07:00,
2013-05-20 01:17:00,49.6,49.6,30.30,West,278,0.0,1.0,100,0.00,,,0.00,Wunderground v.1.15,2013-05-20 08:17:00,
2013-05-20 01:27:00,50.1,50.1,30.30,WNW,287,0.0,0.0,100,0.00,,,0.00,Wunderground v.1.15,2013-05-20 08:27:00,
2013-05-20 01:37:00,50.1,50.1,30.31,WNW,284,0.0,0.0,100,0.00,,,0.00,Wunderground v.1.15,2013-05-20 08:37:00,
2013-05-20 01:47:00,49.9,49.9,30.31,WNW,291,0.0,0.0,100,0.00,,,0.00,Wunderground v.1.15,2013-05-20 08:47:00,
2013-05-20 01:57:00,49.8,49.8,30.31,WNW,292,0.0,0.0,100,0.00,,,0.00,Wunderground v.1.15,2013-05-20 08:57:00,
2013-05-20 02:07:00,49.9,49.9,30.31,WNW,298,0.0,2.0,100,0.00,,,0.00,Wunderground v.1.15,2013-05-20 09:07:00,
2013-05-20 02:17:00,50.2,49.4,30.31,NW,308,0.0,0.0,97,0.00,,,0.00,Wunderground v.1.15,2013-05-20 09:17:00,
2013-05-20 02:27:00,50.1,49.3,30.31,WNW,294,0.0,0.0,97,0.00,,,0.00,Wunderground v.1.15,2013-05-20 09:27:00,
2013-05-20 02:37:00,49.9,49.4,30.30,WNW,291,0.0,0.0,98,0.00,,,0.00,Wunderground v.1.15,2013-05-20 09:37:00,
2013-05-20 02:47:00,49.6,49.1,30.30,West,278,0.0,0.0,98,0.00,,,0.00,Wunderground v.1.15,2013-05-20 09:47:00,
2013-05-20 02:57:00,49.8,49.3,30.30,NW,308,0.0,0.0,98,0.00,,,0.00,Wunderground v.1.15,2013-05-20 09:57:00,
2013-05-20 03:07:00,49.6,49.1,30.29,WNW,296,0.0,0.0,98,0.00,,,0.00,Wunderground v.1.15,2013-05-20 10:07:00,
2013-05-20 03:12:00,49.6,49.1,30.29,WNW,294,0.0,0.0,98,0.00,,,0.00,Wunderground v.1.15,2013-05-20 10:12:00,
2013-05-20 03:22:00,49.9,48.8,30.29,WNW,298,0.0,0.0,96,0.00,,,0.00,Wunderground v.1.15,2013-05-20 10:22:00,
2013-05-20 03:32:00,49.9,49.1,30.28,WNW,298,0.0,0.0,97,0.00,,,0.00,Wunderground v.1.15,2013-05-20 10:32:00,
2013-05-20 03:37:00,49.9,49.1,30.28,WNW,298,0.0,0.0,97,0.00,,,0.00,Wunderground v.1.15,2013-05-20 10:37:00,
2013-05-20 03:47:00,49.8,49.8,30.27,WNW,298,0.0,0.0,100,0.00,,,0.00,Wunderground v.1.15,2013-05-20 10:47:00,
2013-05-20 03:57:00,49.8,49.8,30.27,WNW,298,0.0,0.0,100,0.00,,,0.00,Wunderground v.1.15,2013-05-20 10:57:00,
2013-05-20 04:07:00,50.1,50.1,30.27,WNW,298,0.0,0.0,100,0.00,,,0.00,Wunderground v.1.15,2013-05-20 11:07:00,
2013-05-20 04:12:00,50.2,50.2,30.27,WNW,298,0.0,0.0,100,0.00,,,0.00,Wunderground v.1.15,2013-05-20 11:12:00,
2013-05-20 04:22:00,50.1,50.1,30.26,WNW,298,0.0,0.0,100,0.00,,,0.00,Wunderground v.1.15,2013-05-20 11:22:00,
2013-05-20 04:32:00,49.8,49.8,30.26,WNW,298,0.0,0.0,100,0.00,,,0.00,Wunderground v.1.15,2013-05-20 11:32:00,
2013-05-20 04:42:00,50.1,50.1,30.26,WNW,298,0.0,0.0,100,0.00,,,0.00,Wunderground v.1.15,2013-05-20 11:42:00,
2013-05-20 04:52:00,49.8,49.8,30.25,WNW,301,0.0,0.0,100,0.00,,,0.00,Wunderground v.1.15,2013-05-20 11:52:00,
2013-05-20 05:02:00,49.8,49.8,30.25,WNW,301,0.0,0.0,100,0.00,,,0.00,Wunderground v.1.15,2013-05-20 12:02:00,
2013-05-20 05:07:00,49.8,49.8,30.25,WNW,301,0.0,0.0,100,0.00,,,0.00,Wunderground v.1.15,2013-05-20 12:07:00,
2013-05-20 05:17:00,49.8,49.8,30.25,WNW,301,0.0,0.0,100,0.00,,,0.00,Wunderground v.1.15,2013-05-20 12:17:00,
2013-05-20 05:22:00,49.8,49.8,30.25,WNW,301,0.0,0.0,100,0.00,,,0.00,Wunderground v.1.15,2013-05-20 12:22:00,
2013-05-20 05:32:00,49.8,49.8,30.25,WNW,301,0.0,0.0,100,0.00,,,0.00,Wunderground v.1.15,2013-05-20 12:32:00,
2013-05-20 05:42:00,49.6,49.6,30.25,NNW,340,0.0,0.0,100,0.00,,,0.00,Wunderground v.1.15,2013-05-20 12:42:00,
2013-05-20 05:47:00,49.5,49.5,30.25,North,354,0.0,0.0,100,0.00,,,0.00,Wunderground v.1.15,2013-05-20 12:47:00,
2013-05-20 05:57:00,49.2,49.2,30.25,North,357,0.0,2.0,100,0.00,,,0.00,Wunderground v.1.15,2013-05-20 12:57:00,
2013-05-20 06:07:00,49.2,49.2,30.25,North,0,0.0,0.0,100,0.00,,,0.00,Wunderground v.1.15,2013-05-20 13:07:00,
2013-05-20 06:12:00,49.4,49.4,30.25,NNW,344,0.0,0.0,100,0.00,,,0.00,Wunderground v.1.15,2013-05-20 13:12:00,
2013-05-20 06:22:00,49.2,49.2,30.24,NNW,344,0.0,0.0,100,0.00,,,0.00,Wunderground v.1.15,2013-05-20 13:22:00,
2013-05-20 06:32:00,49.5,49.5,30.23,NNW,344,0.0,0.0,100,0.00,,,0.00,Wunderground v.1.15,2013-05-20 13:32:00,
2013-05-20 06:42:00,49.6,49.6,30.23,NNW,344,0.0,0.0,100,0.00,,,0.00,Wunderground v.1.15,2013-05-20 13:42:00,
2013-05-20 06:52:00,49.4,49.4,30.23,NNW,330,0.0,0.0,100,0.00,,,0.00,Wunderground v.1.15,2013-05-20 13:52:00,
2013-05-20 07:02:00,49.4,49.4,30.23,NNW,333,0.0,0.0,100,0.00,,,0.00,Wunderground v.1.15,2013-05-20 14:02:00,
2013-05-20 07:07:00,49.5,49.5,30.23,NNW,333,0.0,0.0,100,0.00,,,0.00,Wunderground v.1.15,2013-05-20 14:07:00,
2013-05-20 07:17:00,49.8,49.8,30.23,NNW,333,0.0,0.0,100,0.00,,,0.00,Wunderground v.1.15,2013-05-20 14:17:00,
2013-05-20 07:22:00,49.9,49.9,30.23,NNW,333,0.0,0.0,100,0.00,,,0.00,Wunderground v.1.15,2013-05-20 14:22:00,
2013-05-20 07:32:00,50.1,50.1,30.23,NW,326,0.0,0.0,100,0.00,,,0.00,Wunderground v.1.15,2013-05-20 14:32:00,
2013-05-20 07:42:00,50.4,50.4,30.23,NW,326,0.0,0.0,100,0.00,,,0.00,Wunderground v.1.15,2013-05-20 14:42:00,
2013-05-20 07:52:00,50.5,49.7,30.22,NW,326,0.0,0.0,97,0.00,,,0.00,Wunderground v.1.15,2013-05-20 14:52:00,
2013-05-20 08:02:00,51.0,49.6,30.22,NW,326,0.0,0.0,95,0.00,,,0.00,Wunderground v.1.15,2013-05-20 15:02:00,
2013-05-20 08:07:00,51.0,49.0,30.22,NW,312,0.0,0.0,93,0.00,,,0.00,Wunderground v.1.15,2013-05-20 15:07:00,
2013-05-20 08:17:00,51.0,48.8,30.22,NNW,342,0.0,0.0,92,0.00,,,0.00,Wunderground v.1.15,2013-05-20 15:17:00,
2013-05-20 08:27:00,51.1,48.9,30.22,NNW,342,0.0,0.0,92,0.00,,,0.00,Wunderground v.1.15,2013-05-20 15:27:00,
2013-05-20 08:37:00,51.3,49.3,30.22,NNW,342,0.0,0.0,93,0.00,,,0.00,Wunderground v.1.15,2013-05-20 15:37:00,
2013-05-20 08:47:00,51.6,49.1,30.22,NW,326,0.0,0.0,91,0.00,,,0.00,Wunderground v.1.15,2013-05-20 15:47:00,
2013-05-20 08:57:00,51.6,49.4,30.22,NNW,332,0.0,0.0,92,0.00,,,0.00,Wunderground v.1.15,2013-05-20 15:57:00,
2013-05-20 09:02:00,51.9,49.1,30.21,NNW,332,0.0,0.0,90,0.00,,,0.00,Wunderground v.1.15,2013-05-20 16:02:00,
2013-05-20 09:12:00,52.3,48.9,30.21,NNW,332,0.0,0.0,88,0.00,,,0.00,Wunderground v.1.15,2013-05-20 16:12:00,
2013-05-20 09:22:00,52.5,48.7,30.20,NNW,332,0.0,0.0,87,0.00,,,0.00,Wunderground v.1.15,2013-05-20 16:22:00,
2013-05-20 09:27:00,52.6,48.2,30.20,NNW,347,0.0,0.0,85,0.00,,,0.00,Wunderground v.1.15,2013-05-20 16:27:00,
2013-05-20 09:37:00,52.5,48.7,30.20,NNW,342,0.0,0.0,87,0.00,,,0.00,Wunderground v.1.15,2013-05-20 16:37:00,
2013-05-20 09:47:00,52.6,48.2,30.19,NNW,342,0.0,0.0,85,0.00,,,0.00,Wunderground v.1.15,2013-05-20 16:47:00,
2013-05-20 09:57:00,52.8,47.8,30.19,North,350,0.0,0.0,83,0.00,,,0.00,Wunderground v.1.15,2013-05-20 16:57:00,
2013-05-20 10:07:00,53.3,47.6,30.18,NNW,336,0.0,0.0,81,0.00,,,0.00,Wunderground v.1.15,2013-05-20 17:07:00,
2013-05-20 10:17:00,53.3,48.3,30.17,WNW,299,0.0,0.0,83,0.00,,,0.00,Wunderground v.1.15,2013-05-20 17:17:00,
2013-05-20 10:27:00,53.9,47.5,30.17,NNW,339,0.0,1.0,79,0.00,,,0.00,Wunderground v.1.15,2013-05-20 17:27:00,
2013-05-20 10:32:00,53.8,47.8,30.16,NNW,332,0.0,0.0,80,0.00,,,0.00,Wunderground v.1.15,2013-05-20 17:32:00,
2013-05-20 10:42:00,54.7,47.3,30.16,NW,306,0.0,0.0,76,0.00,,,0.00,Wunderground v.1.15,2013-05-20 17:42:00,
2013-05-20 10:52:00,54.5,47.8,30.16,NW,318,0.0,0.0,78,0.00,,,0.00,Wunderground v.1.15,2013-05-20 17:52:00,
2013-05-20 10:57:00,55.1,47.7,30.16,NW,304,0.0,4.0,76,0.00,,,0.00,Wunderground v.1.15,2013-05-20 17:57:00,
2013-05-20 11:07:00,55.1,48.0,30.16,West,280,0.0,2.0,77,0.00,,,0.00,Wunderground v.1.15,2013-05-20 18:07:00,
2013-05-20 11:17:00,55.1,47.3,30.15,SW,227,0.0,0.0,75,0.00,,,0.00,Wunderground v.1.15,2013-05-20 18:17:00,
2013-05-20 11:27:00,55.3,47.5,30.15,West,274,2.0,2.0,75,0.00,,,0.00,Wunderground v.1.15,2013-05-20 18:27:00,
2013-05-20 11:37:00,56.5,48.3,30.15,SSW,196,0.0,2.0,74,0.00,,,0.00,Wunderground v.1.15,2013-05-20 18:37:00,
2013-05-20 11:47:00,56.5,48.3,30.14,WSW,244,0.0,0.0,74,0.00,,,0.00,Wunderground v.1.15,2013-05-20 18:47:00,
2013-05-20 11:52:00,56.6,48.0,30.14,SSW,196,0.0,0.0,73,0.00,,,0.00,Wunderground v.1.15,2013-05-20 18:52:00,
2013-05-20 12:02:00,57.8,48.8,30.13,SSE,167,1.0,1.0,72,0.00,,,0.00,Wunderground v.1.15,2013-05-20 19:02:00,
2013-05-20 12:07:00,59.2,49.0,30.13,SSE,162,0.0,1.0,69,0.00,,,0.00,Wunderground v.1.15,2013-05-20 19:07:00,
2013-05-20 12:17:00,60.7,48.0,30.13,SSE,150,0.0,0.0,63,0.00,,,0.00,Wunderground v.1.15,2013-05-20 19:17:00,
2013-05-20 12:27:00,62.1,48.5,30.13,SE,145,0.0,0.0,61,0.00,,,0.00,Wunderground v.1.15,2013-05-20 19:27:00,
2013-05-20 12:32:00,63.1,49.0,30.11,SE,145,0.0,0.0,60,0.00,,,0.00,Wunderground v.1.15,2013-05-20 19:32:00,
2013-05-20 12:42:00,63.1,48.1,30.11,SSW,205,0.0,0.0,58,0.00,,,0.00,Wunderground v.1.15,2013-05-20 19:42:00,
2013-05-20 12:52:00,62.3,47.8,30.11,SSE,161,1.0,1.0,59,0.00,,,0.00,Wunderground v.1.15,2013-05-20 19:52:00,
2013-05-20 12:57:00,62.1,47.6,30.11,SSE,155,0.0,1.0,59,0.00,,,0.00,Wunderground v.1.15,2013-05-20 19:57:00,
2013-05-20 13:07:00,63.1,48.5,30.10,SSE,152,0.0,6.0,59,0.00,,,0.00,Wunderground v.1.15,2013-05-20 20:07:00,
2013-05-20 13:12:00,63.7,48.2,30.10,SE,144,0.0,0.0,57,0.00,,,0.00,Wunderground v.1.15,2013-05-20 20:12:00,
2013-05-20 13:22:00,64.7,47.7,30.09,SSE,148,0.0,0.0,54,0.00,,,0.00,Wunderground v.1.15,2013-05-20 20:22:00,
2013-05-20 13:32:00,66.6,47.4,30.08,SSE,150,0.0,0.0,50,0.00,,,0.00,Wunderground v.1.15,2013-05-20 20:32:00,
2013-05-20 13:37:00,67.4,47.0,30.08,SE,144,0.0,0.0,48,0.00,,,0.00,Wunderground v.1.15,2013-05-20 20:37:00,
2013-05-20 13:47:00,66.4,45.0,30.07,SSE,147,0.0,0.0,46,0.00,,,0.00,Wunderground v.1.15,2013-05-20 20:47:00,
2013-05-20 13:57:00,68.3,46.7,30.07,SE,144,0.0,0.0,46,0.00,,,0.00,Wunderground v.1.15,2013-05-20 20:57:00,
2013-05-20 14:07:00,69.6,44.2,30.06,ESE,120,0.0,0.0,40,0.00,,,0.00,Wunderground v.1.15,2013-05-20 21:07:00,
2013-05-20 14:17:00,70.4,45.6,30.05,ESE,120,0.0,0.0,41,0.00,,,0.00,Wunderground v.1.15,2013-05-20 21:17:00,
2013-05-20 14:27:00,71.1,44.9,30.05,SE,126,0.0,0.0,39,0.00,,,0.00,Wunderground v.1.15,2013-05-20 21:27:00,
2013-05-20 14:32:00,70.9,44.7,30.04,SSE,147,0.0,0.0,39,0.00,,,0.00,Wunderground v.1.15,2013-05-20 21:32:00,
2013-05-20 14:42:00,70.9,43.3,30.04,SE,144,0.0,0.0,37,0.00,,,0.00,Wunderground v.1.15,2013-05-20 21:42:00,
2013-05-20 14:52:00,70.9,41.1,30.03,SSE,152,0.0,0.0,34,0.00,,,0.00,Wunderground v.1.15,2013-05-20 21:52:00,
2013-05-20 14:57:00,71.3,42.2,30.03,SSE,161,0.0,0.0,35,0.00,,,0.00,Wunderground v.1.15,2013-05-20 21:57:00,
2013-05-20 15:07:00,70.1,44.6,30.02,SW,220,0.0,0.0,40,0.00,,,0.00,Wunderground v.1.15,2013-05-20 22:07:00,
2013-05-20 15:17:00,68.3,38.8,30.01,WNW,289,1.0,3.0,34,0.00,,,0.00,Wunderground v.1.15,2013-05-20 22:17:00,
2013-05-20 15:27:00,68.1,37.9,30.01,WNW,291,1.0,1.0,33,0.00,,,0.00,Wunderground v.1.15,2013-05-20 22:27:00,
2013-05-20 15:37:00,68.4,35.7,30.00,WSW,256,0.0,0.0,30,0.00,,,0.00,Wunderground v.1.15,2013-05-20 22:37:00,
2013-05-20 15:42:00,68.4,38.9,30.00,West,261,1.0,1.0,34,0.00,,,0.00,Wunderground v.1.15,2013-05-20 22:42:00,
2013-05-20 15:52:00,68.9,40.1,29.99,West,272,1.0,1.0,35,0.00,,,0.00,Wunderground v.1.15,2013-05-20 22:52:00,
2013-05-20 15:57:00,68.3,39.6,29.99,SW,234,1.0,1.0,35,0.00,,,0.00,Wunderground v.1.15,2013-05-20 22:57:00,
2013-05-20 16:07:00,68.9,40.1,29.98,WSW,246,0.0,3.0,35,0.00,,,0.00,Wunderground v.1.15,2013-05-20 23:07:00,
2013-05-20 16:17:00,70.1,35.5,29.97,WNW,291,0.0,0.0,28,0.00,,,0.00,Wunderground v.1.15,2013-05-20 23:17:00,
2013-05-20 16:27:00,70.4,38.3,29.97,West,278,1.0,5.0,31,0.00,,,0.00,Wunderground v.1.15,2013-05-20 23:27:00,
2013-05-20 16:37:00,72.0,39.7,29.96,WSW,239,0.0,1.0,31,0.00,,,0.00,Wunderground v.1.15,2013-05-20 23:37:00,
2013-05-20 16:42:00,70.6,41.6,29.96,WNW,292,1.0,1.0,35,0.00,,,0.00,Wunderground v.1.15,2013-05-20 23:42:00,
2013-05-20 16:52:00,70.4,43.6,29.94,WSW,248,1.0,1.0,38,0.00,,,0.00,Wunderground v.1.15,2013-05-20 23:52:00,
2013-05-20 16:57:00,70.8,40.3,29.94,WNW,294,0.0,1.0,33,0.00,,,0.00,Wunderground v.1.15,2013-05-20 23:57:00,
2013-05-20 17:07:00,70.8,44.6,29.94,WNW,282,1.0,6.0,39,0.00,,,0.00,Wunderground v.1.15,2013-05-21 00:07:00,
2013-05-20 17:12:00,70.9,44.0,29.94,WSW,247,1.0,1.0,38,0.00,,,0.00,Wunderground v.1.15,2013-05-21 00:12:00,
2013-05-20 17:22:00,69.6,44.8,29.93,WSW,257,2.0,2.0,41,0.00,,,0.00,Wunderground v.1.15,2013-05-21 00:22:00,
2013-05-20 17:27:00,69.6,43.5,29.93,West,277,1.0,8.0,39,0.00,,,0.00,Wunderground v.1.15,2013-05-21 00:27:00,
2013-05-20 17:37:00,69.6,41.5,29.92,South,185,1.0,1.0,36,0.00,,,0.00,Wunderground v.1.15,2013-05-21 00:37:00,
2013-05-20 17:42:00,69.4,44.0,29.92,WNW,296,1.0,1.0,40,0.00,,,0.00,Wunderground v.1.15,2013-05-21 00:42:00,
2013-05-20 17:52:00,70.1,45.3,29.92,SW,232,1.0,1.0,41,0.00,,,0.00,Wunderground v.1.15,2013-05-21 00:52:00,
2013-05-20 18:02:00,69.1,46.9,29.91,West,271,2.0,2.0,45,0.00,,,0.00,Wunderground v.1.15,2013-05-21 01:02:00,
2013-05-20 18:07:00,68.8,45.4,29.91,WSW,254,3.0,3.0,43,0.00,,,0.00,Wunderground v.1.15,2013-05-21 01:07:00,
2013-05-20 18:12:00,68.6,47.0,29.91,NW,305,3.0,3.0,46,0.00,,,0.00,Wunderground v.1.15,2013-05-21 01:12:00,
2013-05-20 18:22:00,67.9,48.0,29.90,SW,223,3.0,3.0,49,0.00,,,0.00,Wunderground v.1.15,2013-05-21 01:22:00,
2013-05-20 18:27:00,67.9,46.9,29.90,WNW,292,3.0,3.0,47,0.00,,,0.00,Wunderground v.1.15,2013-05-21 01:27:00,
2013-05-20 18:37:00,67.9,46.9,29.90,NW,309,2.0,3.0,47,0.00,,,0.00,Wunderground v.1.15,2013-05-21 01:37:00,
2013-05-20 18:42:00,67.4,48.1,29.90,West,277,1.0,1.0,50,0.00,,,0.00,Wunderground v.1.15,2013-05-21 01:42:00,
2013-05-20 18:52:00,66.4,48.2,29.90,SW,234,3.0,3.0,52,0.00,,,0.00,Wunderground v.1.15,2013-05-21 01:52:00,
2013-05-20 19:02:00,66.1,47.4,29.89,NW,312,2.0,2.0,51,0.00,,,0.00,Wunderground v.1.15,2013-05-21 02:02:00,
2013-05-20 19:07:00,65.2,48.1,29.89,WNW,292,3.0,7.0,54,0.00,,,0.00,Wunderground v.1.15,2013-05-21 02:07:00,
2013-05-20 19:12:00,64.7,47.7,29.89,NW,306,5.0,5.0,54,0.00,,,0.00,Wunderground v.1.15,2013-05-21 02:12:00,
2013-05-20 19:22:00,63.1,47.1,29.89,West,267,6.0,6.0,56,0.00,,,0.00,Wunderground v.1.15,2013-05-21 02:22:00,
2013-05-20 19:27:00,63.1,47.1,29.89,WNW,298,5.0,6.0,56,0.00,,,0.00,Wunderground v.1.15,2013-05-21 02:27:00,
2013-05-20 19:37:00,62.3,47.8,29.89,WNW,299,7.0,8.0,59,0.00,,,0.00,Wunderground v.1.15,2013-05-21 02:37:00,
2013-05-20 19:42:00,61.6,48.4,29.89,WSW,254,7.0,8.0,62,0.00,,,0.00,Wunderground v.1.15,2013-05-21 02:42:00,
2013-05-20 19:52:00,60.7,48.0,29.89,WNW,302,7.0,12.0,63,0.00,,,0.00,Wunderground v.1.15,2013-05-21 02:52:00,
2013-05-20 20:02:00,60.2,48.0,29.89,NNW,344,5.0,5.0,64,0.00,,,0.00,Wunderground v.1.15,2013-05-21 03:02:00,
2013-05-20 20:07:00,59.8,48.4,29.89,West,277,4.0,5.0,66,0.00,,,0.00,Wunderground v.1.15,2013-05-21 03:07:00,
2013-05-20 20:12:00,59.2,48.2,29.89,West,274,4.0,10.0,67,0.00,,,0.00,Wunderground v.1.15,2013-05-21 03:12:00,
2013-05-20 20:22:00,58.9,48.0,29.89,West,272,1.0,6.0,67,0.00,,,0.00,Wunderground v.1.15,2013-05-21 03:22:00,
2013-05-20 20:27:00,58.6,48.1,29.89,West,277,2.0,6.0,68,0.00,,,0.00,Wunderground v.1.15,2013-05-21 03:27:00,
2013-05-20 20:37:00,58.3,48.2,29.89,West,277,0.0,2.0,69,0.00,,,0.00,Wunderground v.1.15,2013-05-21 03:37:00,
2013-05-20 20:42:00,58.0,47.9,29.89,SSW,210,1.0,1.0,69,0.00,,,0.00,Wunderground v.1.15,2013-05-21 03:42:00,
2013-05-20 20:52:00,57.6,48.3,29.89,WNW,301,1.0,7.0,71,0.00,,,0.00,Wunderground v.1.15,2013-05-21 03:52:00,
2013-05-20 21:02:00,57.2,47.9,29.89,SW,223,2.0,2.0,71,0.00,,,0.00,Wunderground v.1.15,2013-05-21 04:02:00,
2013-05-20 21:07:00,57.0,47.7,29.89,WNW,302,1.0,5.0,71,0.00,,,0.00,Wunderground v.1.15,2013-05-21 04:07:00,
2013-05-20 21:12:00,57.2,47.9,29.89,NNW,333,1.0,1.0,71,0.00,,,0.00,Wunderground v.1.15,2013-05-21 04:12:00,
2013-05-20 21:17:00,57.0,48.1,29.89,WNW,302,1.0,2.0,72,0.00,,,0.00,Wunderground v.1.15,2013-05-21 04:17:00,
2013-05-20 21:22:00,56.9,48.3,29.89,NW,322,2.0,6.0,73,0.00,,,0.00,Wunderground v.1.15,2013-05-21 04:22:00,
2013-05-20 21:27:00,56.9,47.6,29.89,WSW,251,2.0,6.0,71,0.00,,,0.00,Wunderground v.1.15,2013-05-21 04:27:00,
2013-05-20 21:37:00,56.7,47.8,29.88,West,277,0.0,1.0,72,0.00,,,0.00,Wunderground v.1.15,2013-05-21 04:37:00,
2013-05-20 21:42:00,56.7,47.8,29.88,NW,304,1.0,1.0,72,0.00,,,0.00,Wunderground v.1.15,2013-05-21 04:42:00,
2013-05-20 21:52:00,56.5,47.6,29.88,West,263,1.0,1.0,72,0.00,,,0.00,Wunderground v.1.15,2013-05-21 04:52:00,
2013-05-20 22:02:00,56.3,47.8,29.88,WSW,248,0.0,10.0,73,0.00,,,0.00,Wunderground v.1.15,2013-05-21 05:02:00,
2013-05-20 22:07:00,56.2,48.0,29.88,WSW,241,1.0,10.0,74,0.00,,,0.00,Wunderground v.1.15,2013-05-21 05:07:00,
2013-05-20 22:12:00,55.9,47.4,29.88,WNW,294,2.0,2.0,73,0.00,,,0.00,Wunderground v.1.15,2013-05-21 05:12:00,
2013-05-20 22:22:00,55.7,47.2,29.88,West,268,0.0,0.0,73,0.00,,,0.00,Wunderground v.1.15,2013-05-21 05:22:00,
2013-05-20 22:27:00,55.4,47.2,29.88,West,275,0.0,0.0,74,0.00,,,0.00,Wunderground v.1.15,2013-05-21 05:27:00,
2013-05-20 22:37:00,55.1,47.3,29.87,NNW,343,1.0,2.0,75,0.00,,,0.00,Wunderground v.1.15,2013-05-21 05:37:00,
2013-05-20 22:42:00,54.8,47.7,29.87,West,270,2.0,2.0,77,0.00,,,0.00,Wunderground v.1.15,2013-05-21 05:42:00,
2013-05-20 22:52:00,54.1,48.4,29.87,West,280,5.0,5.0,81,0.00,,,0.00,Wunderground v.1.15,2013-05-21 05:52:00,
2013-05-20 23:02:00,53.5,48.8,29.88,WSW,254,5.0,6.0,84,0.00,,,0.00,Wunderground v.1.15,2013-05-21 06:02:00,
2013-05-20 23:07:00,53.3,48.6,29.88,WSW,239,7.0,11.0,84,0.00,,,0.00,Wunderground v.1.15,2013-05-21 06:07:00,
2013-05-20 23:12:00,53.3,48.6,29.88,WSW,239,6.0,6.0,84,0.00,,,0.00,Wunderground v.1.15,2013-05-21 06:12:00,
2013-05-20 23:22:00,53.1,48.7,29.87,West,274,4.0,6.0,85,0.00,,,0.00,Wunderground v.1.15,2013-05-21 06:22:00,
2013-05-20 23:27:00,53.2,48.8,29.87,West,261,4.0,6.0,85,0.00,,,0.00,Wunderground v.1.15,2013-05-21 06:27:00,
2013-05-20 23:37:00,52.9,51.5,29.87,WNW,294,4.0,4.0,95,0.00,,,0.00,Wunderground v.1.15,2013-05-21 06:37:00,
2013-05-20 23:47:00,52.3,52.3,29.88,West,272,6.0,7.0,100,0.00,,,0.00,Wunderground v.1.15,2013-05-21 06:47:00,
2013-05-20 23:52:00,52.0,52.0,29.88,West,278,5.0,6.0,100,0.00,,,0.00,Wunderground v.1.15,2013-05-21 06:52:00,